NKS188 ZULS-VNKT
Flight info
| Callsign | NKS188 |
|---|---|
| Flight time | 1h 12m |
| Altitude | 36100 |
| Route | DEP10R IKUBI B345 NONIM/N0456F361 B345 KIMTI KMTI1G |
| Aircraft | A320/M-SDE3FGHIRWY/LB1 |
Departure
| Time | 2026-04-25 09:08 |
|---|---|
| Airport | Lhasa Gonggar International Airport (ZULS) |
Arrival
| Time | 2026-04-25 10:21 |
|---|---|
| Airport | Tribhuvan International Airport (VNKT) |
| Time | Latitude | Longitude | Altitude | Speed | Heading |
|---|---|---|---|---|---|
| 2026-04-25 08:34 | 29.29336 | 90.89074 | 11416 ft | 0 kts | 283° |
| 2026-04-25 09:00 | 29.29331 | 90.89098 | 11395 ft | 4 kts | 281° |
| 2026-04-25 09:00 | 29.29325 | 90.89128 | 11402 ft | 4 kts | 291° |
| 2026-04-25 09:01 | 29.29316 | 90.89150 | 11401 ft | 4 kts | 300° |
| 2026-04-25 09:01 | 29.29303 | 90.89174 | 11394 ft | 1 kts | 309° |
| 2026-04-25 09:01 | 29.29302 | 90.89174 | 11394 ft | 0 kts | 309° |
| 2026-04-25 09:04 | 29.29303 | 90.89173 | 11394 ft | 1 kts | 309° |
| 2026-04-25 09:04 | 29.29318 | 90.89173 | 11401 ft | 3 kts | 21° |
| 2026-04-25 09:04 | 29.29343 | 90.89185 | 11397 ft | 5 kts | 21° |
| 2026-04-25 09:04 | 29.29379 | 90.89196 | 11394 ft | 6 kts | 7° |
| 2026-04-25 09:05 | 29.29429 | 90.89196 | 11396 ft | 8 kts | 0° |
| 2026-04-25 09:05 | 29.29489 | 90.89197 | 11400 ft | 9 kts | 360° |
| 2026-04-25 09:05 | 29.29561 | 90.89196 | 11409 ft | 11 kts | 359° |
| 2026-04-25 09:05 | 29.29645 | 90.89195 | 11402 ft | 13 kts | 359° |
| 2026-04-25 09:06 | 29.29734 | 90.89195 | 11400 ft | 13 kts | 359° |
| 2026-04-25 09:06 | 29.29777 | 90.89244 | 11402 ft | 3 kts | 88° |
| 2026-04-25 09:06 | 29.29777 | 90.89247 | 11403 ft | 2 kts | 88° |
| 2026-04-25 09:07 | 29.29779 | 90.89425 | 11397 ft | 55 kts | 89° |
| 2026-04-25 09:07 | 29.29790 | 90.90120 | 11408 ft | 117 kts | 89° |
| 2026-04-25 09:07 | 29.29809 | 90.91262 | 11393 ft | 167 kts | 89° |
| 2026-04-25 09:07 | 29.29769 | 90.92717 | 11621 ft | 184 kts | 96° |
| 2026-04-25 09:08 | 29.29746 | 90.94167 | 12062 ft | 190 kts | 89° |
| 2026-04-25 09:08 | 29.29957 | 90.95763 | 12238 ft | 213 kts | 81° |
| 2026-04-25 09:08 | 29.30300 | 90.97491 | 12838 ft | 226 kts | 75° |
| 2026-04-25 09:08 | 29.30557 | 90.99259 | 13672 ft | 227 kts | 89° |
| 2026-04-25 09:09 | 29.30563 | 91.01121 | 13789 ft | 242 kts | 86° |
| 2026-04-25 09:09 | 29.30902 | 91.03073 | 13852 ft | 259 kts | 70° |
| 2026-04-25 09:09 | 29.31550 | 91.05084 | 13877 ft | 280 kts | 75° |
| 2026-04-25 09:09 | 29.31872 | 91.07336 | 13993 ft | 292 kts | 90° |
| 2026-04-25 09:10 | 29.31693 | 91.09661 | 14550 ft | 294 kts | 105° |
| 2026-04-25 09:10 | 29.31221 | 91.11683 | 15124 ft | 296 kts | 105° |
| 2026-04-25 09:10 | 29.30765 | 91.13984 | 15713 ft | 298 kts | 102° |
| 2026-04-25 09:10 | 29.30408 | 91.16306 | 16296 ft | 301 kts | 99° |
| 2026-04-25 09:11 | 29.30046 | 91.20333 | 17270 ft | 306 kts | 96° |
| 2026-04-25 09:11 | 29.29810 | 91.23562 | 18062 ft | 309 kts | 96° |
| 2026-04-25 09:11 | 29.29631 | 91.26028 | 18584 ft | 312 kts | 95° |
| 2026-04-25 09:12 | 29.29452 | 91.28511 | 19094 ft | 314 kts | 96° |
| 2026-04-25 09:12 | 29.29325 | 91.30200 | 19444 ft | 316 kts | 97° |
| 2026-04-25 09:12 | 29.28857 | 91.32655 | 19975 ft | 317 kts | 111° |
| 2026-04-25 09:12 | 29.27915 | 91.34935 | 20493 ft | 318 kts | 123° |
| 2026-04-25 09:13 | 29.26564 | 91.36939 | 21010 ft | 318 kts | 136° |
| 2026-04-25 09:13 | 29.24865 | 91.38561 | 21507 ft | 319 kts | 149° |
| 2026-04-25 09:13 | 29.22923 | 91.39704 | 21980 ft | 319 kts | 161° |
| 2026-04-25 09:13 | 29.20844 | 91.40618 | 22448 ft | 321 kts | 161° |
| 2026-04-25 09:14 | 29.18749 | 91.41540 | 22921 ft | 324 kts | 160° |
| 2026-04-25 09:14 | 29.16637 | 91.42470 | 23391 ft | 326 kts | 160° |
| 2026-04-25 09:14 | 29.14502 | 91.43375 | 23822 ft | 328 kts | 166° |
| 2026-04-25 09:14 | 29.12255 | 91.43795 | 24225 ft | 327 kts | 181° |
| 2026-04-25 09:15 | 29.10004 | 91.43505 | 24622 ft | 327 kts | 198° |
| 2026-04-25 09:15 | 29.07913 | 91.42512 | 25023 ft | 326 kts | 213° |
| 2026-04-25 09:15 | 29.06141 | 91.40905 | 25434 ft | 326 kts | 229° |
| 2026-04-25 09:15 | 29.04811 | 91.38817 | 25823 ft | 326 kts | 244° |
| 2026-04-25 09:16 | 29.04011 | 91.36401 | 26238 ft | 327 kts | 259° |
| 2026-04-25 09:16 | 29.03809 | 91.33820 | 26656 ft | 328 kts | 274° |
| 2026-04-25 09:16 | 29.04223 | 91.31253 | 27061 ft | 331 kts | 287° |
| 2026-04-25 09:16 | 29.04901 | 91.28695 | 27206 ft | 342 kts | 286° |
| 2026-04-25 09:17 | 29.06299 | 91.23302 | 27465 ft | 365 kts | 286° |
| 2026-04-25 09:17 | 29.07027 | 91.20471 | 27591 ft | 378 kts | 285° |
| 2026-04-25 09:17 | 29.07779 | 91.17538 | 27715 ft | 390 kts | 285° |
| 2026-04-25 09:18 | 29.08554 | 91.14520 | 27841 ft | 401 kts | 286° |
| 2026-04-25 09:18 | 29.09352 | 91.11418 | 27965 ft | 412 kts | 286° |
| 2026-04-25 09:18 | 29.10169 | 91.08237 | 28094 ft | 421 kts | 286° |
| 2026-04-25 09:18 | 29.11001 | 91.04984 | 28221 ft | 430 kts | 286° |
| 2026-04-25 09:19 | 29.11847 | 91.01668 | 28350 ft | 439 kts | 286° |
| 2026-04-25 09:19 | 29.12709 | 90.98296 | 28546 ft | 445 kts | 286° |
| 2026-04-25 09:19 | 29.13583 | 90.94885 | 28879 ft | 448 kts | 286° |
| 2026-04-25 09:19 | 29.14461 | 90.91458 | 29217 ft | 450 kts | 286° |
| 2026-04-25 09:20 | 29.15342 | 90.88015 | 29592 ft | 452 kts | 286° |
| 2026-04-25 09:20 | 29.16220 | 90.84572 | 30075 ft | 450 kts | 286° |
| 2026-04-25 09:20 | 29.17092 | 90.81146 | 30542 ft | 448 kts | 285° |
| 2026-04-25 09:20 | 29.17959 | 90.77729 | 30988 ft | 446 kts | 285° |
| 2026-04-25 09:21 | 29.18821 | 90.74325 | 31430 ft | 445 kts | 285° |
| 2026-04-25 09:21 | 29.19681 | 90.70928 | 31881 ft | 443 kts | 285° |
| 2026-04-25 09:21 | 29.20539 | 90.67542 | 32343 ft | 442 kts | 285° |
| 2026-04-25 09:21 | 29.21383 | 90.64218 | 32806 ft | 440 kts | 285° |
| 2026-04-25 09:22 | 29.22245 | 90.60814 | 33291 ft | 439 kts | 285° |
| 2026-04-25 09:22 | 29.23083 | 90.57507 | 33780 ft | 437 kts | 285° |
| 2026-04-25 09:22 | 29.23928 | 90.54171 | 34208 ft | 435 kts | 285° |
| 2026-04-25 09:22 | 29.24767 | 90.50853 | 34656 ft | 433 kts | 285° |
| 2026-04-25 09:23 | 29.25597 | 90.47556 | 35089 ft | 430 kts | 285° |
| 2026-04-25 09:23 | 29.26423 | 90.44271 | 35501 ft | 428 kts | 284° |
| 2026-04-25 09:23 | 29.27246 | 90.40998 | 35851 ft | 427 kts | 284° |
| 2026-04-25 09:24 | 29.28884 | 90.34463 | 35955 ft | 429 kts | 284° |
| 2026-04-25 09:24 | 29.30526 | 90.27894 | 35951 ft | 429 kts | 284° |
| 2026-04-25 09:25 | 29.32162 | 90.21313 | 35959 ft | 430 kts | 283° |
| 2026-04-25 09:25 | 29.32829 | 90.14561 | 35966 ft | 428 kts | 271° |
| 2026-04-25 09:26 | 29.33042 | 90.07730 | 35962 ft | 429 kts | 271° |
| 2026-04-25 09:26 | 29.33277 | 90.00891 | 35970 ft | 430 kts | 271° |
| 2026-04-25 09:27 | 29.33511 | 89.94042 | 35973 ft | 431 kts | 271° |
| 2026-04-25 09:27 | 29.33726 | 89.87171 | 35974 ft | 432 kts | 271° |
| 2026-04-25 09:28 | 29.33940 | 89.80295 | 35976 ft | 432 kts | 271° |
| 2026-04-25 09:28 | 29.34160 | 89.73455 | 35967 ft | 432 kts | 271° |
| 2026-04-25 09:29 | 29.34366 | 89.66562 | 35966 ft | 433 kts | 271° |
| 2026-04-25 09:29 | 29.34571 | 89.59667 | 35955 ft | 433 kts | 271° |
| 2026-04-25 09:30 | 29.34778 | 89.52748 | 35948 ft | 434 kts | 271° |
| 2026-04-25 09:30 | 29.34976 | 89.45830 | 35944 ft | 434 kts | 271° |
| 2026-04-25 09:31 | 29.35174 | 89.38907 | 35934 ft | 435 kts | 271° |
| 2026-04-25 09:31 | 29.35192 | 89.31982 | 35929 ft | 435 kts | 262° |
| 2026-04-25 09:32 | 29.33364 | 89.25418 | 35928 ft | 435 kts | 242° |
| 2026-04-25 09:32 | 29.31688 | 89.22532 | 35923 ft | 436 kts | 231° |
| 2026-04-25 09:32 | 29.29647 | 89.19949 | 35924 ft | 437 kts | 228° |
| 2026-04-25 09:33 | 29.25528 | 89.14873 | 35925 ft | 438 kts | 228° |
| 2026-04-25 09:33 | 29.21383 | 89.09756 | 35926 ft | 438 kts | 228° |
| 2026-04-25 09:34 | 29.17223 | 89.04639 | 35929 ft | 439 kts | 228° |
| 2026-04-25 09:34 | 29.13064 | 88.99526 | 35936 ft | 439 kts | 228° |
| 2026-04-25 09:35 | 29.08892 | 88.94410 | 35950 ft | 440 kts | 228° |
| 2026-04-25 09:35 | 29.04716 | 88.89295 | 35954 ft | 440 kts | 228° |
| 2026-04-25 09:36 | 29.00567 | 88.84219 | 35967 ft | 440 kts | 228° |
| 2026-04-25 09:36 | 28.96389 | 88.79109 | 35987 ft | 440 kts | 228° |
| 2026-04-25 09:37 | 28.92205 | 88.74006 | 36003 ft | 440 kts | 228° |
| 2026-04-25 09:37 | 28.88017 | 88.68898 | 36016 ft | 441 kts | 228° |
| 2026-04-25 09:38 | 28.83821 | 88.63790 | 36034 ft | 441 kts | 228° |
| 2026-04-25 09:38 | 28.79622 | 88.58687 | 36047 ft | 441 kts | 228° |
| 2026-04-25 09:39 | 28.75426 | 88.53583 | 36058 ft | 441 kts | 228° |
| 2026-04-25 09:39 | 28.71224 | 88.48476 | 36073 ft | 442 kts | 228° |
| 2026-04-25 09:40 | 28.64908 | 88.40832 | 36077 ft | 442 kts | 228° |
| 2026-04-25 09:40 | 28.60689 | 88.35739 | 36082 ft | 442 kts | 228° |
| 2026-04-25 09:41 | 28.56475 | 88.30643 | 36087 ft | 442 kts | 228° |
| 2026-04-25 09:41 | 28.52260 | 88.25548 | 36090 ft | 442 kts | 228° |
| 2026-04-25 09:42 | 28.48038 | 88.20465 | 36093 ft | 442 kts | 228° |
| 2026-04-25 09:42 | 28.43843 | 88.15420 | 36106 ft | 442 kts | 228° |
| 2026-04-25 09:43 | 28.39616 | 88.10345 | 36113 ft | 442 kts | 228° |
| 2026-04-25 09:43 | 28.35387 | 88.05271 | 36132 ft | 443 kts | 228° |
| 2026-04-25 09:44 | 28.31149 | 88.00194 | 36147 ft | 443 kts | 228° |
| 2026-04-25 09:44 | 28.26911 | 87.95124 | 36180 ft | 443 kts | 228° |
| 2026-04-25 09:45 | 28.22667 | 87.90054 | 36208 ft | 443 kts | 228° |
| 2026-04-25 09:45 | 28.18424 | 87.84990 | 36235 ft | 443 kts | 228° |
| 2026-04-25 09:46 | 28.14180 | 87.79931 | 36269 ft | 443 kts | 228° |
| 2026-04-25 09:46 | 28.09967 | 87.74905 | 36292 ft | 443 kts | 228° |
| 2026-04-25 09:47 | 28.05716 | 87.69848 | 36307 ft | 443 kts | 228° |
| 2026-04-25 09:47 | 28.01455 | 87.64799 | 36322 ft | 443 kts | 228° |
| 2026-04-25 09:48 | 27.97190 | 87.59745 | 36322 ft | 444 kts | 228° |
| 2026-04-25 09:48 | 27.92922 | 87.54687 | 36336 ft | 445 kts | 228° |
| 2026-04-25 09:49 | 27.88658 | 87.49633 | 36336 ft | 445 kts | 228° |
| 2026-04-25 09:49 | 27.84271 | 87.44700 | 36330 ft | 447 kts | 220° |
| 2026-04-25 09:50 | 27.78849 | 87.41245 | 36329 ft | 451 kts | 204° |
| 2026-04-25 09:50 | 27.73038 | 87.38580 | 36315 ft | 451 kts | 204° |
| 2026-04-25 09:51 | 27.67224 | 87.35897 | 36307 ft | 451 kts | 205° |
| 2026-04-25 09:51 | 27.61415 | 87.33210 | 36285 ft | 452 kts | 204° |
| 2026-04-25 09:52 | 27.55632 | 87.30557 | 36266 ft | 452 kts | 204° |
| 2026-04-25 09:52 | 27.49807 | 87.27871 | 36241 ft | 452 kts | 204° |
| 2026-04-25 09:53 | 27.43985 | 87.25192 | 36222 ft | 452 kts | 204° |
| 2026-04-25 09:53 | 27.38345 | 87.22145 | 36186 ft | 448 kts | 219° |
| 2026-04-25 09:54 | 27.36120 | 87.19729 | 36167 ft | 444 kts | 234° |
| 2026-04-25 09:54 | 27.34541 | 87.16772 | 36160 ft | 441 kts | 249° |
| 2026-04-25 09:54 | 27.33695 | 87.13479 | 36153 ft | 438 kts | 263° |
| 2026-04-25 09:54 | 27.33607 | 87.10066 | 36143 ft | 437 kts | 276° |
| 2026-04-25 09:55 | 27.34831 | 87.03358 | 36147 ft | 439 kts | 282° |
| 2026-04-25 09:55 | 27.36152 | 86.96649 | 36154 ft | 440 kts | 282° |
| 2026-04-25 09:56 | 27.37470 | 86.89926 | 36167 ft | 440 kts | 282° |
| 2026-04-25 09:56 | 27.38782 | 86.83199 | 36184 ft | 440 kts | 282° |
| 2026-04-25 09:57 | 27.40094 | 86.76466 | 36193 ft | 441 kts | 282° |
| 2026-04-25 09:57 | 27.41400 | 86.69769 | 36199 ft | 441 kts | 282° |
| 2026-04-25 09:58 | 27.42706 | 86.63029 | 36206 ft | 441 kts | 282° |
| 2026-04-25 09:58 | 27.44008 | 86.56285 | 36206 ft | 440 kts | 282° |
| 2026-04-25 09:59 | 27.45308 | 86.49555 | 36201 ft | 440 kts | 282° |
| 2026-04-25 09:59 | 27.46607 | 86.42822 | 36196 ft | 440 kts | 282° |
| 2026-04-25 10:00 | 27.47895 | 86.36085 | 36191 ft | 440 kts | 282° |
| 2026-04-25 10:00 | 27.48535 | 86.29263 | 36175 ft | 440 kts | 266° |
| 2026-04-25 10:01 | 27.48030 | 86.25863 | 36166 ft | 441 kts | 255° |
| 2026-04-25 10:01 | 27.46968 | 86.22622 | 36152 ft | 443 kts | 245° |
| 2026-04-25 10:01 | 27.43655 | 86.16751 | 36127 ft | 445 kts | 238° |
| 2026-04-25 10:02 | 27.40185 | 86.10969 | 36092 ft | 445 kts | 238° |
| 2026-04-25 10:02 | 27.36744 | 86.05216 | 36071 ft | 446 kts | 238° |
| 2026-04-25 10:03 | 27.33269 | 85.99436 | 36000 ft | 447 kts | 238° |
| 2026-04-25 10:03 | 27.31525 | 85.96545 | 35534 ft | 448 kts | 238° |
| 2026-04-25 10:03 | 27.29769 | 85.93631 | 34732 ft | 452 kts | 238° |
| 2026-04-25 10:04 | 27.28574 | 85.91649 | 34190 ft | 455 kts | 238° |
| 2026-04-25 10:04 | 27.26796 | 85.88699 | 33209 ft | 461 kts | 238° |
| 2026-04-25 10:04 | 27.24987 | 85.85696 | 32294 ft | 464 kts | 238° |
| 2026-04-25 10:04 | 27.23198 | 85.82724 | 31334 ft | 467 kts | 238° |
| 2026-04-25 10:05 | 27.21367 | 85.79686 | 30369 ft | 470 kts | 238° |
| 2026-04-25 10:05 | 27.19526 | 85.76638 | 29515 ft | 469 kts | 238° |
| 2026-04-25 10:05 | 27.17706 | 85.73639 | 28910 ft | 461 kts | 238° |
| 2026-04-25 10:05 | 27.15905 | 85.70680 | 28232 ft | 456 kts | 238° |
| 2026-04-25 10:06 | 27.14149 | 85.67748 | 27572 ft | 449 kts | 241° |
| 2026-04-25 10:06 | 27.12795 | 85.64635 | 26939 ft | 440 kts | 252° |
| 2026-04-25 10:06 | 27.11997 | 85.61349 | 26310 ft | 432 kts | 262° |
| 2026-04-25 10:06 | 27.11746 | 85.58022 | 25691 ft | 425 kts | 271° |
| 2026-04-25 10:07 | 27.11760 | 85.54724 | 25082 ft | 421 kts | 271° |
| 2026-04-25 10:07 | 27.11769 | 85.51458 | 24484 ft | 417 kts | 271° |
| 2026-04-25 10:07 | 27.11774 | 85.48221 | 23893 ft | 413 kts | 271° |
| 2026-04-25 10:07 | 27.11774 | 85.45018 | 23309 ft | 409 kts | 271° |
| 2026-04-25 10:08 | 27.11773 | 85.41846 | 22706 ft | 403 kts | 271° |
| 2026-04-25 10:08 | 27.11771 | 85.38722 | 22177 ft | 398 kts | 271° |
| 2026-04-25 10:08 | 27.11983 | 85.35664 | 21853 ft | 388 kts | 282° |
| 2026-04-25 10:08 | 27.12823 | 85.32884 | 21586 ft | 367 kts | 296° |
| 2026-04-25 10:09 | 27.14177 | 85.30573 | 21094 ft | 354 kts | 310° |
| 2026-04-25 10:09 | 27.16001 | 85.28707 | 20607 ft | 356 kts | 323° |
| 2026-04-25 10:09 | 27.18057 | 85.27160 | 20015 ft | 355 kts | 324° |
| 2026-04-25 10:09 | 27.20107 | 85.25628 | 19422 ft | 354 kts | 324° |
| 2026-04-25 10:10 | 27.22164 | 85.24082 | 18839 ft | 357 kts | 324° |
| 2026-04-25 10:10 | 27.24210 | 85.22539 | 18475 ft | 352 kts | 324° |
| 2026-04-25 10:10 | 27.26250 | 85.21030 | 18093 ft | 349 kts | 328° |
| 2026-04-25 10:10 | 27.28450 | 85.19963 | 17969 ft | 341 kts | 341° |
| 2026-04-25 10:11 | 27.30762 | 85.19498 | 17765 ft | 336 kts | 353° |
| 2026-04-25 10:11 | 27.33090 | 85.19631 | 17421 ft | 337 kts | 7° |
| 2026-04-25 10:11 | 27.35385 | 85.20153 | 17058 ft | 335 kts | 7° |
| 2026-04-25 10:11 | 27.37378 | 85.20543 | 16737 ft | 332 kts | 5° |
| 2026-04-25 10:12 | 27.39666 | 85.20792 | 16398 ft | 329 kts | 359° |
| 2026-04-25 10:12 | 27.41947 | 85.20856 | 16108 ft | 327 kts | 358° |
| 2026-04-25 10:12 | 27.46424 | 85.21147 | 15333 ft | 329 kts | 7° |
| 2026-04-25 10:13 | 27.48684 | 85.21803 | 14510 ft | 344 kts | 13° |
| 2026-04-25 10:13 | 27.51036 | 85.22575 | 13661 ft | 356 kts | 13° |
| 2026-04-25 10:13 | 27.53423 | 85.23444 | 12697 ft | 367 kts | 20° |
| 2026-04-25 10:13 | 27.55698 | 85.24849 | 11730 ft | 379 kts | 33° |
| 2026-04-25 10:14 | 27.57661 | 85.26858 | 11032 ft | 383 kts | 47° |
| 2026-04-25 10:14 | 27.59156 | 85.29302 | 10449 ft | 373 kts | 61° |
| 2026-04-25 10:14 | 27.60131 | 85.31941 | 9915 ft | 356 kts | 69° |
| 2026-04-25 10:14 | 27.60945 | 85.34473 | 9729 ft | 329 kts | 69° |
| 2026-04-25 10:15 | 27.61703 | 85.36793 | 9650 ft | 304 kts | 68° |
| 2026-04-25 10:15 | 27.62472 | 85.38929 | 9332 ft | 288 kts | 60° |
| 2026-04-25 10:15 | 27.63643 | 85.40761 | 8565 ft | 288 kts | 45° |
| 2026-04-25 10:15 | 27.64974 | 85.42339 | 8115 ft | 265 kts | 45° |
| 2026-04-25 10:16 | 27.66163 | 85.43771 | 7956 ft | 235 kts | 45° |
| 2026-04-25 10:16 | 27.67212 | 85.45045 | 7841 ft | 208 kts | 45° |
| 2026-04-25 10:16 | 27.68164 | 85.46147 | 7778 ft | 190 kts | 36° |
| 2026-04-25 10:16 | 27.69258 | 85.46889 | 7485 ft | 177 kts | 19° |
| 2026-04-25 10:17 | 27.70385 | 85.47200 | 7227 ft | 160 kts | 3° |
| 2026-04-25 10:17 | 27.71473 | 85.47165 | 7018 ft | 154 kts | 348° |
| 2026-04-25 10:17 | 27.72490 | 85.46825 | 6815 ft | 152 kts | 334° |
| 2026-04-25 10:17 | 27.73387 | 85.46212 | 6619 ft | 150 kts | 320° |
| 2026-04-25 10:18 | 27.74112 | 85.45373 | 6414 ft | 149 kts | 306° |
| 2026-04-25 10:18 | 27.74628 | 85.44363 | 6212 ft | 149 kts | 291° |
| 2026-04-25 10:18 | 27.74910 | 85.43244 | 6009 ft | 147 kts | 277° |
| 2026-04-25 10:18 | 27.74935 | 85.42092 | 5809 ft | 147 kts | 265° |
| 2026-04-25 10:19 | 27.74716 | 85.40978 | 5616 ft | 146 kts | 250° |
| 2026-04-25 10:19 | 27.74283 | 85.39987 | 5417 ft | 144 kts | 242° |
| 2026-04-25 10:19 | 27.73778 | 85.39018 | 5224 ft | 144 kts | 242° |
| 2026-04-25 10:19 | 27.73238 | 85.38054 | 4990 ft | 146 kts | 234° |
| 2026-04-25 10:20 | 27.72460 | 85.37260 | 4831 ft | 155 kts | 216° |
| 2026-04-25 10:20 | 27.71493 | 85.36749 | 4578 ft | 157 kts | 204° |
| 2026-04-25 10:20 | 27.70504 | 85.36308 | 4401 ft | 149 kts | 205° |
| 2026-04-25 10:20 | 27.69655 | 85.35907 | 4372 ft | 105 kts | 201° |
| 2026-04-25 10:21 | 27.69204 | 85.35705 | 4354 ft | 49 kts | 202° |
| 2026-04-25 10:21 | 27.68916 | 85.35579 | 4342 ft | 43 kts | 201° |
| 2026-04-25 10:21 | 27.68693 | 85.35479 | 4332 ft | 36 kts | 202° |
| 2026-04-25 10:21 | 27.68518 | 85.35399 | 4328 ft | 14 kts | 204° |
| 2026-04-25 10:22 | 27.68442 | 85.35327 | 4322 ft | 8 kts | 190° |
| 2026-04-25 10:22 | 27.68435 | 85.35356 | 4323 ft | 6 kts | 66° |
| 2026-04-25 10:22 | 27.68492 | 85.35389 | 4323 ft | 13 kts | 22° |
| 2026-04-25 10:22 | 27.68584 | 85.35431 | 4332 ft | 16 kts | 22° |
| 2026-04-25 10:23 | 27.68698 | 85.35482 | 4335 ft | 20 kts | 21° |
| 2026-04-25 10:23 | 27.68827 | 85.35541 | 4343 ft | 19 kts | 23° |
| 2026-04-25 10:23 | 27.68940 | 85.35592 | 4349 ft | 16 kts | 22° |
| 2026-04-25 10:23 | 27.69032 | 85.35616 | 4343 ft | 12 kts | 348° |
| 2026-04-25 10:24 | 27.69096 | 85.35555 | 4353 ft | 13 kts | 339° |
| 2026-04-25 10:24 | 27.69175 | 85.35580 | 4357 ft | 11 kts | 22° |
| 2026-04-25 10:24 | 27.69235 | 85.35607 | 4347 ft | 9 kts | 21° |
| 2026-04-25 10:24 | 27.69302 | 85.35637 | 4354 ft | 13 kts | 22° |
| 2026-04-25 10:25 | 27.69392 | 85.35678 | 4356 ft | 14 kts | 22° |
| 2026-04-25 10:25 | 27.69482 | 85.35720 | 4362 ft | 14 kts | 22° |
| 2026-04-25 10:25 | 27.69569 | 85.35758 | 4374 ft | 13 kts | 21° |
| 2026-04-25 10:25 | 27.69655 | 85.35797 | 4374 ft | 15 kts | 21° |
| 2026-04-25 10:26 | 27.69755 | 85.35836 | 4360 ft | 15 kts | 7° |
| 2026-04-25 10:26 | 27.69857 | 85.35844 | 4368 ft | 12 kts | 17° |
| 2026-04-25 10:26 | 27.69935 | 85.35880 | 4363 ft | 13 kts | 23° |
| 2026-04-25 10:26 | 27.70006 | 85.35903 | 4372 ft | 9 kts | 337° |
| 2026-04-25 10:27 | 27.70028 | 85.35857 | 4378 ft | 0 kts | 290° |